Time;durP1;ratioP1;P1;durP2;ratioP2;P2;SDS_P1;SDS_P2;PMS_P1;PMS_P2;Temp;Humidity;BMP_temperature;BMP_pressure;BME280_temperature;BME280_humidity;BME280_pressure;Samples;Min_cycle;Max_cycle;Signal;HPM_P1;HPM_P2
2023/03/04 00:02:12;;;;;;;;;52.50;37.75;;;;;3.77;100.00;102159.91;4972459;28;46103;-82
2023/03/04 00:04:37;;;;;;;;;63.75;47.25;;;;;3.69;100.00;102143.44;4971122;28;45432;-83
2023/03/04 00:07:03;;;;;;;;;54.50;41.75;;;;;3.78;100.00;102160.78;4977065;28;45663;-84
2023/03/04 00:09:28;;;;;;;;;66.50;46.00;;;;;3.70;100.00;102159.59;4991947;28;45873;-85
2023/03/04 00:11:53;;;;;;;;;62.75;45.25;;;;;3.71;100.00;102164.03;4988124;28;45444;-81
2023/03/04 00:14:19;;;;;;;;;58.00;45.50;;;;;3.71;100.00;102166.75;4971489;28;46308;-80
2023/03/04 00:16:44;;;;;;;;;62.50;46.50;;;;;3.68;100.00;102160.69;4979909;28;44814;-81
2023/03/04 00:19:10;;;;;;;;;54.75;41.25;;;;;3.71;100.00;102172.16;4969474;28;45619;-80
2023/03/04 00:21:35;;;;;;;;;67.50;46.75;;;;;3.72;100.00;102173.88;4969543;28;45775;-80
2023/03/04 00:24:01;;;;;;;;;55.50;42.50;;;;;3.66;100.00;102165.41;4969641;28;45745;-81
2023/03/04 00:26:26;;;;;;;;;60.50;43.50;;;;;3.71;100.00;102179.44;4965467;28;45857;-80
2023/03/04 00:28:51;;;;;;;;;53.75;43.50;;;;;3.72;100.00;102183.88;4968246;28;45362;-80
2023/03/04 00:31:17;;;;;;;;;58.25;46.00;;;;;3.74;100.00;102175.59;5007075;28;46205;-80
2023/03/04 00:33:43;;;;;;;;;59.25;45.25;;;;;3.74;100.00;102170.19;4969054;28;45404;-80
2023/03/04 00:36:09;;;;;;;;;62.00;46.75;;;;;3.73;100.00;102177.47;4977981;28;45550;-81
2023/03/04 00:38:35;;;;;;;;;62.75;46.25;;;;;3.74;100.00;102183.75;4972026;28;45524;-80
2023/03/04 00:41:01;;;;;;;;;63.50;48.75;;;;;3.67;100.00;102175.28;4970179;28;46508;-81
2023/03/04 00:43:26;;;;;;;;;63.25;46.50;;;;;3.74;100.00;102179.16;4965257;28;45705;-80
2023/03/04 00:45:51;;;;;;;;;56.50;46.00;;;;;3.75;100.00;102180.06;4976458;28;45539;-79
2023/03/04 00:48:17;;;;;;;;;61.75;45.50;;;;;3.75;100.00;102182.75;4963655;28;45536;-81
2023/03/04 00:50:43;;;;;;;;;64.25;49.75;;;;;3.74;100.00;102172.88;4959314;28;46904;-80
2023/03/04 00:53:09;;;;;;;;;57.75;44.25;;;;;3.79;100.00;102186.94;4968628;28;45534;-80
2023/03/04 00:55:34;;;;;;;;;53.75;45.75;;;;;3.79;100.00;102190.50;4980592;28;45675;-81
2023/03/04 00:58:00;;;;;;;;;54.75;40.75;;;;;3.78;100.00;102194.22;4978234;28;45405;-80
2023/03/04 01:00:25;;;;;;;;;61.50;47.00;;;;;3.76;100.00;102196.19;4973634;28;45393;-78
2023/03/04 01:02:51;;;;;;;;;62.25;46.75;;;;;3.78;100.00;102196.91;4975936;28;45408;-79
2023/03/04 01:05:16;;;;;;;;;62.75;48.00;;;;;3.78;100.00;102196.06;4976447;28;45376;-78
2023/03/04 01:07:42;;;;;;;;;61.00;47.25;;;;;3.77;100.00;102186.19;4977880;28;45370;-80
2023/03/04 01:10:11;;;;;;;;;61.00;45.00;;;;;3.76;100.00;102201.63;4975705;28;45769;-80
2023/03/04 01:12:36;;;;;;;;;60.25;47.25;;;;;3.75;100.00;102196.34;4970401;28;45769;-80
2023/03/04 01:15:03;;;;;;;;;61.75;48.75;;;;;3.72;100.00;102195.56;4973145;28;45332;-81
2023/03/04 01:17:28;;;;;;;;;64.75;49.00;;;;;3.73;100.00;102191.03;4975964;28;47601;-80
2023/03/04 01:19:54;;;;;;;;;60.50;46.25;;;;;3.74;100.00;102197.31;4967226;28;45428;-79
2023/03/04 01:22:19;;;;;;;;;61.25;46.50;;;;;3.74;100.00;102191.88;4968297;28;45384;-79
2023/03/04 01:24:45;;;;;;;;;59.75;42.50;;;;;3.69;100.00;102184.97;4965891;28;45438;-79
2023/03/04 01:27:11;;;;;;;;;58.50;43.75;;;;;3.70;100.00;102184.00;4966112;28;45569;-79
2023/03/04 01:29:36;;;;;;;;;57.00;45.50;;;;;3.71;100.00;102188.44;4960206;28;46342;-80
2023/03/04 01:32:02;;;;;;;;;56.25;43.00;;;;;3.74;100.00;102191.88;4978262;28;45373;-80
2023/03/04 01:34:27;;;;;;;;;58.00;45.00;;;;;3.67;100.00;102184.25;4979701;28;45565;-79
2023/03/04 01:36:52;;;;;;;;;61.25;47.50;;;;;3.68;100.00;102176.97;4979594;28;45463;-80
2023/03/04 01:39:18;;;;;;;;;57.25;43.75;;;;;3.71;100.00;102174.88;4977239;28;46549;-81
2023/03/04 01:41:43;;;;;;;;;56.75;44.25;;;;;3.73;100.00;102180.19;4957990;28;45340;-78
2023/03/04 01:44:10;;;;;;;;;55.50;45.00;;;;;3.74;100.00;102176.44;4973821;28;45444;-79
2023/03/04 01:46:36;;;;;;;;;54.75;44.25;;;;;3.70;100.00;102175.88;4971541;28;45512;-78
2023/03/04 01:49:02;;;;;;;;;60.00;45.00;;;;;3.69;100.00;102171.41;4971190;28;45380;-78
2023/03/04 01:51:28;;;;;;;;;52.25;42.75;;;;;3.69;100.00;102176.00;4996025;28;45722;-78
2023/03/04 01:53:54;;;;;;;;;53.00;44.25;;;;;3.69;100.00;102162.44;4994932;28;45157;-79
2023/03/04 01:56:37;;;;;;;;;55.50;39.25;;;;;3.59;100.00;102154.19;4998362;28;44785;-80
2023/03/04 01:59:24;;;;;;;;;57.50;44.00;;;;;3.62;100.00;102151.25;4980973;28;46167;-79
2023/03/04 02:01:52;;;;;;;;;56.50;41.75;;;;;3.64;100.00;102160.09;4982536;28;45684;-78
2023/03/04 02:04:22;;;;;;;;;52.00;39.50;;;;;3.64;100.00;102160.09;4966932;28;45432;-78
2023/03/04 02:06:49;;;;;;;;;57.25;43.25;;;;;3.60;100.00;102161.34;4978093;28;45539;-78
2023/03/04 02:09:16;;;;;;;;;53.75;43.75;;;;;3.57;100.00;102152.59;4978112;28;46127;-78
2023/03/04 02:11:43;;;;;;;;;57.50;41.50;;;;;3.59;100.00;102156.91;4964422;28;45420;-79
2023/03/04 02:14:10;;;;;;;;;54.75;42.50;;;;;3.57;100.00;102152.59;4970812;28;45335;-80
2023/03/04 02:16:35;;;;;;;;;66.75;48.25;;;;;3.59;100.00;102161.47;4981573;28;45698;-79
2023/03/04 02:19:01;;;;;;;;;57.25;44.75;;;;;3.58;100.00;102166.03;4966920;28;46151;-79
2023/03/04 02:21:32;;;;;;;;;67.00;45.75;;;;;3.55;100.00;102160.88;4978819;28;45435;-78
2023/03/04 02:24:14;;;;;;;;;57.50;45.00;;;;;3.54;100.00;102165.41;4962768;28;45524;-79
2023/03/04 02:26:42;;;;;;;;;63.00;46.25;;;;;3.43;100.00;102140.19;4980678;28;45616;-79
2023/03/04 02:29:10;;;;;;;;;54.25;41.75;;;;;3.51;100.00;102148.56;4971230;28;46185;-79
2023/03/04 02:31:35;;;;;;;;;60.50;46.00;;;;;3.52;100.00;102161.97;4968595;28;45483;-78
2023/03/04 02:34:04;;;;;;;;;60.75;47.00;;;;;3.52;100.00;102161.13;4973507;28;45384;-79
2023/03/04 02:36:31;;;;;;;;;61.25;46.00;;;;;3.50;100.00;102157.66;4971104;28;45444;-81
2023/03/04 02:39:03;;;;;;;;;52.00;37.75;;;;;3.47;100.00;102160.63;4974698;28;46206;-81
2023/03/04 02:41:29;;;;;;;;;67.75;49.25;;;;;3.35;100.00;102139.00;4968475;28;45437;-79
2023/03/04 02:43:55;;;;;;;;;58.75;44.50;;;;;3.42;100.00;102152.03;4979122;28;45446;-80
2023/03/04 02:46:21;;;;;;;;;62.50;49.75;;;;;3.38;100.00;102148.69;4968392;28;45682;-78
2023/03/04 02:48:48;;;;;;;;;63.50;49.75;;;;;3.25;100.00;102138.03;4979517;28;45422;-79
2023/03/04 02:51:14;;;;;;;;;60.75;46.25;;;;;3.33;100.00;102156.38;4968092;28;45397;-79
2023/03/04 02:53:39;;;;;;;;;60.00;45.50;;;;;3.30;100.00;102145.78;4974131;28;45627;-79
2023/03/04 02:56:05;;;;;;;;;46.75;40.00;;;;;3.30;100.00;102137.63;4961606;28;45671;-78
2023/03/04 02:58:31;;;;;;;;;64.75;46.75;;;;;3.28;100.00;102143.19;4976361;28;47348;-80
2023/03/04 03:00:56;;;;;;;;;56.25;42.50;;;;;3.27;100.00;102143.31;4979999;28;45448;-79
2023/03/04 03:03:21;;;;;;;;;65.75;48.00;;;;;3.24;100.00;102140.84;4964292;28;45380;-80
2023/03/04 03:05:47;;;;;;;;;61.00;45.50;;;;;3.18;100.00;102136.78;4977923;28;46077;-78
2023/03/04 03:08:12;;;;;;;;;64.50;50.25;;;;;3.11;100.00;102130.16;4967987;28;45485;-79
2023/03/04 03:10:38;;;;;;;;;64.00;46.00;;;;;3.09;100.00;102126.72;4975533;28;45424;-78
2023/03/04 03:13:03;;;;;;;;;63.25;49.25;;;;;3.08;100.00;102130.41;4973168;28;45324;-81
2023/03/04 03:15:29;;;;;;;;;63.75;47.25;;;;;3.06;100.00;102127.81;4971084;28;45463;-79
2023/03/04 03:17:54;;;;;;;;;63.25;47.75;;;;;3.00;100.00;102131.88;4974973;28;46457;-81
2023/03/04 03:20:19;;;;;;;;;60.50;47.75;;;;;2.98;100.00;102125.75;4970929;28;45777;-78
2023/03/04 03:22:45;;;;;;;;;68.75;48.25;;;;;2.97;100.00;102123.16;4992148;28;45610;-79
2023/03/04 03:25:12;;;;;;;;;61.75;42.75;;;;;2.93;100.00;102125.22;4992961;28;45755;-78
2023/03/04 03:27:38;;;;;;;;;59.75;45.50;;;;;2.93;100.00;102124.38;4973136;28;47414;-78
2023/03/04 03:30:05;;;;;;;;;65.00;48.25;;;;;2.88;100.00;102119.34;4976012;28;45489;-78
2023/03/04 03:32:31;;;;;;;;;58.75;45.25;;;;;2.87;100.00;102122.19;4965908;28;45611;-79
2023/03/04 03:34:56;;;;;;;;;63.00;45.00;;;;;2.86;100.00;102125.84;4978880;28;45420;-77
2023/03/04 03:37:21;;;;;;;;;52.75;40.50;;;;;2.82;100.00;102120.69;4972439;28;46652;-78
2023/03/04 03:39:47;;;;;;;;;56.50;43.75;;;;;2.83;100.00;102121.56;4966242;28;45874;-79
2023/03/04 03:42:12;;;;;;;;;65.00;47.00;;;;;2.76;100.00;102112.22;4974679;28;45571;-80
2023/03/04 03:44:37;;;;;;;;;55.25;42.50;;;;;2.78;100.00;102121.06;4973721;28;45479;-78
2023/03/04 03:47:03;;;;;;;;;48.75;43.75;;;;;2.79;100.00;102130.94;4984066;28;46083;-77
2023/03/04 03:49:28;;;;;;;;;63.75;46.50;;;;;2.57;100.00;102094.72;4968633;28;45544;-79
2023/03/04 03:51:54;;;;;;;;;50.00;41.75;;;;;2.76;100.00;102120.34;4977381;28;45450;-79
2023/03/04 03:54:20;;;;;;;;;59.25;43.00;;;;;2.78;100.00;102123.78;4969491;28;45372;-85
2023/03/04 03:56:46;;;;;;;;;60.75;42.75;;;;;2.80;100.00;102125.38;4980263;28;45784;-79
2023/03/04 03:59:11;;;;;;;;;60.00;44.25;;;;;2.75;100.00;102124.03;4975206;28;45566;-83
2023/03/04 04:01:36;;;;;;;;;60.25;44.00;;;;;2.77;100.00;102138.28;4979836;28;45709;-84
2023/03/04 04:04:03;;;;;;;;;50.75;38.25;;;;;2.78;100.00;102137.31;4972805;28;45380;-84
2023/03/04 04:06:28;;;;;;;;;56.50;41.75;;;;;2.76;100.00;102133.88;4990107;28;47624;-85
2023/03/04 04:08:53;;;;;;;;;54.50;43.00;;;;;2.76;100.00;102128.47;4985364;28;45329;-84
2023/03/04 04:11:19;;;;;;;;;54.50;40.50;;;;;2.78;100.00;102138.16;5018932;28;45381;-85
2023/03/04 04:13:44;;;;;;;;;58.50;44.25;;;;;2.82;100.00;102136.94;4984111;28;45333;-85
2023/03/04 04:16:10;;;;;;;;;52.00;42.25;;;;;2.80;100.00;102132.66;4983141;28;45514;-84
2023/03/04 04:18:36;;;;;;;;;52.75;42.25;;;;;2.85;100.00;102146.69;4971291;28;45444;-83
2023/03/04 04:21:03;;;;;;;;;55.50;42.50;;;;;2.79;100.00;102137.19;5011037;28;45405;-84
2023/03/04 04:23:28;;;;;;;;;54.50;42.25;;;;;2.88;100.00;102151.00;4970660;28;45833;-84
2023/03/04 04:25:54;;;;;;;;;51.75;39.50;;;;;2.81;100.00;102135.25;4986147;28;45554;-82
2023/03/04 04:28:20;;;;;;;;;49.25;39.25;;;;;2.88;100.00;102151.84;4983813;28;45429;-80
2023/03/04 04:30:45;;;;;;;;;54.00;41.50;;;;;2.76;100.00;102131.19;4974716;28;45162;-82
2023/03/04 04:33:11;;;;;;;;;58.75;42.25;;;;;2.91;100.00;102150.75;4982320;28;46159;-83
2023/03/04 04:35:37;;;;;;;;;52.50;37.25;;;;;2.78;100.00;102129.19;4987479;28;45995;-80
2023/03/04 04:38:03;;;;;;;;;48.75;40.00;;;;;2.94;100.00;102153.22;4990783;28;45514;-83
2023/03/04 04:40:29;;;;;;;;;38.00;37.00;;;;;2.94;100.00;102150.50;4990387;28;44833;-82
2023/03/04 04:42:54;;;;;;;;;51.75;39.50;;;;;2.94;100.00;102150.50;4981931;28;45645;-82
2023/03/04 04:45:20;;;;;;;;;44.50;35.00;;;;;2.93;100.00;102149.63;4985482;28;45383;-83
2023/03/04 04:47:45;;;;;;;;;56.75;38.75;;;;;2.88;100.00;102138.31;4977096;28;44749;-83
2023/03/04 04:50:11;;;;;;;;;54.00;40.25;;;;;3.02;100.00;102158.00;4988456;28;44767;-83
2023/03/04 04:52:36;;;;;;;;;53.75;42.75;;;;;2.96;100.00;102154.81;4990556;28;45403;-82
2023/03/04 04:55:02;;;;;;;;;50.00;36.50;;;;;3.02;100.00;102167.00;4995921;28;45456;-83
2023/03/04 04:57:28;;;;;;;;;54.25;40.50;;;;;3.00;100.00;102167.13;5025994;28;45321;-82
2023/03/04 04:59:53;;;;;;;;;54.00;41.50;;;;;3.02;100.00;102172.41;4992745;28;45374;-83
2023/03/04 05:02:19;;;;;;;;;54.50;39.75;;;;;2.99;100.00;102175.38;4990553;28;45385;-82
2023/03/04 05:04:44;;;;;;;;;49.75;38.25;;;;;3.00;100.00;102172.53;4988361;28;45168;-81
2023/03/04 05:07:10;;;;;;;;;51.00;40.75;;;;;2.96;100.00;102170.19;4987751;28;45036;-83
2023/03/04 05:09:35;;;;;;;;;54.25;43.25;;;;;2.99;100.00;102176.25;4968878;28;44715;-83
2023/03/04 05:12:00;;;;;;;;;47.75;38.75;;;;;2.98;100.00;102173.66;4981225;28;45287;-82
2023/03/04 05:14:26;;;;;;;;;53.50;42.50;;;;;2.98;100.00;102177.22;4974761;28;45357;-84
2023/03/04 05:16:54;;;;;;;;;52.00;42.25;;;;;3.02;100.00;102187.81;4986134;28;45354;-82
2023/03/04 05:19:20;;;;;;;;;49.25;38.25;;;;;2.99;100.00;102187.09;4976266;28;45531;-83
2023/03/04 05:21:45;;;;;;;;;54.25;41.75;;;;;2.98;100.00;102185.34;4967079;28;45467;-83
2023/03/04 05:24:10;;;;;;;;;52.50;39.75;;;;;3.00;100.00;102188.78;4985301;28;45488;-82
2023/03/04 05:26:36;;;;;;;;;50.25;40.25;;;;;3.02;100.00;102190.53;4981277;28;45536;-81
2023/03/04 05:29:02;;;;;;;;;49.00;37.75;;;;;3.02;100.00;102179.69;4974093;28;45545;-82
2023/03/04 05:31:27;;;;;;;;;57.50;42.00;;;;;2.99;100.00;102187.09;4975047;28;45366;-83
2023/03/04 05:33:53;;;;;;;;;55.75;41.00;;;;;3.03;100.00;102187.69;4978004;28;45618;-84
2023/03/04 05:36:19;;;;;;;;;53.25;38.50;;;;;2.98;100.00;102177.22;4978839;28;45367;-81
2023/03/04 05:38:44;;;;;;;;;47.50;37.50;;;;;2.99;100.00;102178.06;4985314;28;45789;-83
2023/03/04 05:41:09;;;;;;;;;57.75;40.25;;;;;2.97;100.00;102177.34;4980177;28;46214;-85
2023/03/04 05:43:37;;;;;;;;;55.75;43.25;;;;;2.98;100.00;102179.09;4973804;28;45353;-83
2023/03/04 05:46:03;;;;;;;;;43.50;37.25;;;;;2.82;100.00;102160.47;4970408;28;45333;-83
2023/03/04 05:48:28;;;;;;;;;54.25;37.00;;;;;2.92;100.00;102175.00;4971194;28;45504;-84
2023/03/04 05:50:59;;;;;;;;;56.75;40.25;;;;;2.93;100.00;102175.88;4974543;28;45461;-83
2023/03/04 05:53:25;;;;;;;;;50.75;40.00;;;;;2.96;100.00;102187.34;4975931;28;47059;-85
2023/03/04 05:55:51;;;;;;;;;53.25;41.00;;;;;2.94;100.00;102189.28;4972728;28;45429;-84
2023/03/04 05:58:17;;;;;;;;;61.75;43.50;;;;;2.94;100.00;102183.88;4957651;28;45519;-86
2023/03/04 06:00:43;;;;;;;;;47.50;33.50;;;;;2.93;100.00;102184.84;4961947;28;45418;-82
2023/03/04 06:03:20;;;;;;;;;51.75;42.00;;;;;2.87;100.00;102188.06;4947523;28;47253;-82
2023/03/04 06:05:46;;;;;;;;;51.75;36.25;;;;;2.76;100.00;102174.53;4959282;28;45554;-82
2023/03/04 06:08:12;;;;;;;;;55.00;42.00;;;;;2.73;100.00;102178.31;4954740;28;45437;-81
2023/03/04 06:10:39;;;;;;;;;46.25;36.00;;;;;2.83;100.00;102187.44;4952176;28;46934;-84
2023/03/04 06:13:05;;;;;;;;;52.75;39.25;;;;;2.82;100.00;102195.69;4956389;28;46491;-79
2023/03/04 06:15:31;;;;;;;;;39.00;34.00;;;;;2.83;100.00;102197.44;4951412;28;45638;-79
2023/03/04 06:17:56;;;;;;;;;47.50;39.00;;;;;2.85;100.00;102206.28;4954772;28;45378;-78
2023/03/04 06:20:22;;;;;;;;;54.50;42.00;;;;;2.89;100.00;102199.66;4953245;28;45436;-80
2023/03/04 06:22:47;;;;;;;;;52.50;40.50;;;;;2.86;100.00;102202.59;4940990;28;45504;-80
2023/03/04 06:25:13;;;;;;;;;49.75;38.50;;;;;2.92;100.00;102204.81;4941174;28;45791;-79
2023/03/04 06:27:39;;;;;;;;;50.75;39.25;;;;;2.92;100.00;102218.38;4949937;28;45599;-80
2023/03/04 06:30:05;;;;;;;;;53.75;36.25;;;;;2.96;100.00;102213.56;4947555;28;45752;-82
2023/03/04 06:32:31;;;;;;;;;43.00;37.75;;;;;3.01;100.00;102214.06;4957182;28;45565;-85
2023/03/04 06:34:56;;;;;;;;;47.75;37.00;;;;;3.00;100.00;102215.91;4957234;28;45499;-80
2023/03/04 06:37:22;;;;;;;;;45.00;36.75;;;;;3.00;100.00;102207.75;4952009;28;46103;-80
2023/03/04 06:39:48;;;;;;;;;48.50;39.00;;;;;2.89;100.00;102186.09;4950678;28;45570;-79
2023/03/04 06:42:14;;;;;;;;;50.00;38.75;;;;;3.05;100.00;102206.53;4954252;28;46517;-80
2023/03/04 06:44:40;;;;;;;;;36.50;28.75;;;;;3.22;100.00;102225.03;4953144;28;45413;-80
2023/03/04 06:47:06;;;;;;;;;56.50;42.50;;;;;3.24;100.00;102216.78;4951668;28;45495;-79
2023/03/04 06:49:34;;;;;;;;;56.75;38.25;;;;;3.38;100.00;102232.75;4956148;28;46499;-82
2023/03/04 06:52:00;;;;;;;;;48.75;38.00;;;;;3.46;100.00;102224.03;4952128;28;45424;-81
2023/03/04 06:54:27;;;;;;;;;54.50;41.00;;;;;3.51;100.00;102222.63;4951565;28;45647;-80
2023/03/04 06:56:52;;;;;;;;;45.25;36.50;;;;;3.64;100.00;102230.63;4954831;28;45838;-81
2023/03/04 06:59:18;;;;;;;;;56.00;42.25;;;;;3.54;100.00;102199.81;4952834;28;45476;-78
2023/03/04 07:01:44;;;;;;;;;56.50;41.25;;;;;3.87;100.00;102227.84;4952126;28;48402;-78
2023/03/04 07:04:12;;;;;;;;;58.25;42.75;;;;;4.19;100.00;102230.59;4951146;28;45649;-80
2023/03/04 07:06:38;;;;;;;;;53.25;41.25;;;;;4.45;100.00;102218.50;4950118;28;45924;-77
2023/03/04 07:09:04;;;;;;;;;53.75;42.00;;;;;4.44;100.00;102222.19;4953821;28;45509;-79
2023/03/04 07:11:30;;;;;;;;;55.25;42.25;;;;;4.54;100.00;102232.13;4953430;28;45661;-80
2023/03/04 07:13:56;;;;;;;;;58.75;42.00;;;;;4.63;100.00;102233.19;4953343;28;45507;-82
2023/03/04 07:16:22;;;;;;;;;57.00;44.25;;;;;4.74;100.00;102234.97;4946101;28;45833;-80
2023/03/04 07:18:48;;;;;;;;;56.25;40.75;;;;;4.84;100.00;102241.31;4955354;28;45533;-80
2023/03/04 07:21:14;;;;;;;;;66.00;47.00;;;;;4.94;100.00;102241.38;4956422;28;46463;-80
2023/03/04 07:23:40;;;;;;;;;46.00;39.00;;;;;5.02;100.00;102247.00;4956218;28;45553;-80
2023/03/04 07:26:06;;;;;;;;;56.25;44.00;;;;;5.10;100.00;102247.19;4956586;28;45962;-79
2023/03/04 07:28:32;;;;;;;;;55.25;41.75;;;;;5.24;100.00;102245.09;4955126;28;46017;-79
2023/03/04 07:31:10;;;;;;;;;52.00;42.50;;;;;5.34;100.00;102248.69;4955318;28;46361;-81
2023/03/04 07:33:35;;;;;;;;;49.50;41.50;;;;;5.46;100.00;102253.06;4955268;28;45593;-79
2023/03/04 07:36:00;;;;;;;;;56.50;45.00;;;;;5.58;100.00;102256.50;4952601;28;45991;-80
2023/03/04 07:38:26;;;;;;;;;56.25;41.50;;;;;5.64;100.00;102238.78;4957610;28;45773;-80
2023/03/04 07:40:56;;;;;;;;;51.50;40.50;;;;;5.81;100.00;102251.72;4944581;28;46455;-80
2023/03/04 07:43:21;;;;;;;;;53.25;38.50;;;;;5.89;100.00;102253.72;4956869;28;45489;-81
2023/03/04 07:45:47;;;;;;;;;59.50;44.75;;;;;5.86;100.00;102250.44;4956267;28;45353;-80
2023/03/04 07:48:12;;;;;;;;;56.00;41.50;;;;;5.91;100.00;102254.44;4947372;28;45862;-79
2023/03/04 07:50:37;;;;;;;;;57.00;42.50;;;;;6.02;100.00;102253.50;4958470;28;46610;-79
2023/03/04 07:53:03;;;;;;;;;55.75;42.50;;;;;6.04;100.00;102251.50;4958286;28;45768;-81
2023/03/04 07:55:30;;;;;;;;;55.25;45.75;;;;;6.14;100.00;102257.81;4956498;28;45483;-79
2023/03/04 07:57:56;;;;;;;;;53.00;41.25;;;;;6.36;100.00;102261.25;4952330;28;46170;-81
2023/03/04 08:00:22;;;;;;;;;56.25;42.00;;;;;6.52;100.00;102263.41;4953870;28;45579;-80
2023/03/04 08:02:47;;;;;;;;;57.75;41.00;;;;;6.67;100.00;102261.94;4956331;28;45832;-79
2023/03/04 08:05:13;;;;;;;;;62.50;47.25;;;;;6.87;100.00;102265.50;4956980;28;45853;-81
2023/03/04 08:07:38;;;;;;;;;57.00;43.25;;;;;7.02;100.00;102262.28;4956508;28;46280;-81
2023/03/04 08:10:05;;;;;;;;;53.50;44.25;;;;;7.18;100.00;102267.13;4959127;28;46428;-81
2023/03/04 08:12:30;;;;;;;;;58.50;45.75;;;;;7.33;100.00;102271.09;4954471;28;45924;-81
2023/03/04 08:14:55;;;;;;;;;54.75;42.75;;;;;7.47;100.00;102264.31;4954171;28;45944;-80
2023/03/04 08:17:21;;;;;;;;;60.00;42.25;;;;;7.56;100.00;102276.16;4949491;28;45742;-80
2023/03/04 08:19:46;;;;;;;;;61.50;47.50;;;;;7.69;100.00;102264.91;4985792;28;46693;-81
2023/03/04 08:22:13;;;;;;;;;57.00;45.00;;;;;7.85;100.00;102276.00;4961564;28;45448;-79
2023/03/04 08:24:43;;;;;;;;;52.00;42.25;;;;;8.03;100.00;102280.66;4954077;28;45961;-85
2023/03/04 08:27:08;;;;;;;;;56.00;41.50;;;;;8.14;100.00;102272.22;4952370;28;45742;-81
2023/03/04 08:29:34;;;;;;;;;53.00;40.50;;;;;8.26;100.00;102281.94;4957955;28;46247;-81
2023/03/04 08:31:59;;;;;;;;;58.25;44.75;;;;;8.38;100.00;102276.22;4958761;28;45723;-84
2023/03/04 08:34:27;;;;;;;;;53.75;42.75;;;;;8.45;100.00;102274.59;4958711;28;45794;-81
2023/03/04 08:36:53;;;;;;;;;55.75;43.75;;;;;8.52;100.00;102283.03;4956693;28;45472;-83
2023/03/04 08:39:19;;;;;;;;;52.25;41.00;;;;;8.51;100.00;102279.44;4952711;28;48009;-82
2023/03/04 08:41:47;;;;;;;;;58.50;43.50;;;;;8.54;100.00;102275.53;4949292;28;45684;-81
2023/03/04 08:44:13;;;;;;;;;49.00;38.00;;;;;8.54;100.00;102281.00;4960632;28;45492;-81
2023/03/04 08:46:40;;;;;;;;;55.75;42.25;;;;;8.46;100.00;102279.91;4972860;28;47218;-86
2023/03/04 08:49:35;;;;;;;;;50.25;38.25;;;;;8.46;100.00;102279.91;4960035;28;45536;-83
2023/03/04 08:52:01;;;;;;;;;45.50;39.50;;;;;8.48;100.00;102271.56;4948945;28;46113;-79
2023/03/04 08:54:34;;;;;;;;;52.00;40.50;;;;;8.54;100.00;102286.47;4953987;28;45492;-83
2023/03/04 08:57:01;;;;;;;;;44.50;35.75;;;;;8.53;100.00;102285.59;4927060;28;45402;-80
2023/03/04 08:59:27;;;;;;;;;42.00;35.25;;;;;8.52;100.00;102286.63;4956619;28;45694;-78
2023/03/04 09:01:57;;;;;;;;;44.75;35.25;;;;;8.53;100.00;102293.81;4945163;28;45801;-80
2023/03/04 09:04:23;;;;;;;;;40.75;33.25;;;;;8.51;100.00;102290.38;4954547;28;45857;-80
2023/03/04 09:06:48;;;;;;;;;32.50;30.25;;;;;8.33;100.00;102295.81;4945948;28;45814;-80
2023/03/04 09:09:14;;;;;;;;;45.00;32.50;;;;;8.13;100.00;102285.03;4949416;28;45539;-80
2023/03/04 09:11:39;;;;;;;;;32.25;29.00;;;;;8.18;100.00;102294.66;4944842;28;45579;-80
2023/03/04 09:14:05;;;;;;;;;38.00;30.33;;;;;7.94;100.00;102288.75;4949098;28;45806;-80
2023/03/04 09:16:30;;;;;;;;;28.75;24.50;;;;;7.85;100.00;102302.47;4957390;28;45913;-80
2023/03/04 09:18:55;;;;;;;;;47.50;34.25;;;;;7.58;100.00;102307.75;4966786;28;47691;-82
2023/03/04 09:21:21;;;;;;;;;33.00;31.00;;;;;7.39;100.00;102281.41;4954364;28;45730;-81
2023/03/04 09:23:46;;;;;;;;;40.25;33.00;;;;;7.64;100.00;102300.84;4951986;28;45909;-81
2023/03/04 09:26:25;;;;;;;;;37.75;34.00;;;;;7.48;100.00;102297.91;4945830;28;45828;-83
2023/03/04 09:28:57;;;;;;;;;38.25;32.00;;;;;7.50;100.00;102304.94;4952817;28;45593;-80
2023/03/04 09:31:23;;;;;;;;;44.00;37.00;;;;;7.63;100.00;102303.72;4955789;28;45456;-79
2023/03/04 09:33:50;;;;;;;;;37.75;28.75;;;;;7.49;100.00;102303.22;4968426;28;45448;-81
2023/03/04 09:36:16;;;;;;;;;30.67;29.00;;;;;7.42;100.00;102311.16;4966690;28;45170;-79
2023/03/04 09:38:42;;;;;;;;;32.25;27.00;;;;;7.41;100.00;102305.84;4971032;28;45514;-80
2023/03/04 09:41:14;;;;;;;;;39.00;31.75;;;;;7.52;100.00;102307.53;4967316;28;45519;-80
2023/03/04 09:43:40;;;;;;;;;37.00;29.75;;;;;7.54;100.00;102300.88;4967393;28;44863;-80
2023/03/04 09:46:12;;;;;;;;;36.00;28.50;;;;;7.60;100.00;102305.75;4963158;28;45760;-79
2023/03/04 09:48:54;;;;;;;;;46.75;35.00;;;;;7.66;100.00;102306.16;4953170;28;45724;-80
2023/03/04 09:51:44;;;;;;;;;44.00;34.25;;;;;7.66;100.00;102314.34;4954884;28;45523;-80
2023/03/04 09:54:36;;;;;;;;;38.50;32.25;;;;;7.62;100.00;102308.34;4961307;28;45674;-84
2023/03/04 09:57:27;;;;;;;;;38.00;31.50;;;;;7.71;100.00;102312.00;4961568;28;45285;-82
2023/03/04 10:00:08;;;;;;;;;31.67;25.33;;;;;7.80;100.00;102308.41;4953425;28;46165;-83
2023/03/04 10:03:10;;;;;;;;;38.00;29.67;;;;;7.78;100.00;102313.13;4953914;28;45622;-82
2023/03/04 10:05:48;;;;;;;;;28.00;25.33;;;;;7.92;100.00;102309.06;4951312;28;45353;-83
2023/03/04 10:08:42;;;;;;;;;26.33;25.00;;;;;7.97;100.00;102295.78;4990444;28;45846;-83
2023/03/04 10:11:31;;;;;;;;;28.67;23.00;;;;;8.03;100.00;102305.25;4965695;28;45360;-83
2023/03/04 10:13:59;;;;;;;;;27.67;25.67;;;;;7.98;100.00;102313.03;4965138;28;45132;-82
2023/03/04 10:16:32;;;;;;;;;18.67;17.33;;;;;7.80;100.00;102300.22;4965458;28;44862;-83
2023/03/04 10:19:43;;;;;;;;;25.67;21.33;;;;;7.74;100.00;102314.47;4956725;28;45917;-82
2023/03/04 10:22:22;;;;;;;;;21.33;17.67;;;;;7.68;100.00;102304.13;4939836;28;45436;-81
2023/03/04 10:24:47;;;;;;;;;22.67;17.33;;;;;7.49;100.00;102275.91;4939371;28;45417;-82
2023/03/04 10:27:17;;;;;;;;;21.33;18.67;;;;;7.67;100.00;102295.09;4959405;28;45497;-84
2023/03/04 10:29:43;;;;;;;;;21.00;17.67;;;;;7.69;100.00;102276.66;4946821;28;47270;-84
2023/03/04 10:32:15;;;;;;;;;26.67;21.00;;;;;7.67;100.00;102288.78;4967681;28;45526;-83
2023/03/04 10:34:41;;;;;;;;;22.33;13.67;;;;;7.62;100.00;102274.69;4971231;28;45458;-82
2023/03/04 10:37:08;;;;;;;;;25.33;15.67;;;;;7.69;100.00;102282.13;4986018;28;45453;-84
2023/03/04 10:39:39;;;;;;;;;25.67;18.00;;;;;7.56;100.00;102271.56;4967549;28;45489;-82
2023/03/04 10:42:25;;;;;;;;;20.33;19.00;;;;;7.74;100.00;102277.09;4999765;28;48705;-82
2023/03/04 10:44:54;;;;;;;;;24.33;18.00;;;;;7.87;100.00;102284.91;4966725;28;44880;-83
2023/03/04 10:47:27;;;;;;;;;22.67;15.67;;;;;7.90;100.00;102290.09;4963097;28;46435;-85
2023/03/04 10:50:01;;;;;;;;;20.33;17.00;;;;;7.83;100.00;102269.84;4966411;28;45157;-82
2023/03/04 10:52:45;;;;;;;;;18.00;15.33;;;;;8.02;100.00;102282.50;4968247;28;45845;-83
2023/03/04 10:55:18;;;;;;;;;19.00;15.00;;;;;8.00;100.00;102268.16;4957847;28;45668;-86
2023/03/04 10:57:52;;;;;;;;;23.33;15.00;;;;;8.09;100.00;102282.75;4991110;28;45723;-82
2023/03/04 11:00:36;;;;;;;;;17.67;15.33;;;;;8.05;100.00;102275.88;4957157;28;45733;-84
2023/03/04 11:03:27;;;;;;;;;18.33;14.67;;;;;8.10;100.00;102273.56;4960430;28;46266;-84
2023/03/04 11:06:15;;;;;;;;;13.67;13.33;;;;;8.13;100.00;102265.91;4953861;28;45504;-83
2023/03/04 11:08:43;;;;;;;;;11.33;8.67;;;;;7.94;100.00;102227.78;4959113;28;45417;-83
2023/03/04 11:11:29;;;;;;;;;18.33;16.33;;;;;8.04;100.00;102252.28;4957064;28;46197;-83
2023/03/04 11:14:11;;;;;;;;;19.33;16.00;;;;;8.01;100.00;102241.69;4956665;28;46723;-83